17:45
Airports
Links
Donate
Help keep this website running!
PayPal
Bitcoin
METAR
KFCS 191658Z AUTO 17011KT 4SM FZDZ BR OVC003 M09/M10 A2963 RMK AO2 SLP069 T10901105 $
Current Weather Conditions at KFCS
LIFR 16:58:00 19-02-18
Automated station, no observer
Altimeter:29.63 hg
Temp:-9.0°c 16°f
Dew point:-10.5°c 14°f
Wind:11 knots, 12.7 mph, 6 m/s, from 170°
Visibility:4.0 statute miles
300(OVC) Overcast
Past METAR reports
LIFR 16:48:00 19-02-18
Automated station, no observer
Altimeter:29.63 hg
Temp:-9.0°c 16°f
Dew point:-10.0°c 14°f
Wind:12 knots, 13.8 mph, 6 m/s, from 170°
Visibility:3.0 statute miles
300(OVC) Overcast
KFCS 191648Z AUTO 17012KT 3SM FZDZ BR OVC003 M09/M10 A2963 RMK AO2 SLP069 $
LIFR 16:38:00 19-02-18
Automated station, no observer
Altimeter:29.63 hg
Temp:-9.0°c 16°f
Dew point:-10.0°c 14°f
Wind:12 knots, 13.8 mph, 6 m/s, from 170°
Visibility:4.0 statute miles
200(OVC) Overcast
KFCS 191638Z AUTO 17012KT 4SM FZDZ BR OVC002 M09/M10 A2963 RMK AO2 SLP069 $
LIFR 16:33:00 19-02-18
Automated station, no observer
Altimeter:29.63 hg
Temp:-9.0°c 16°f
Dew point:-10.0°c 14°f
Wind:14 knots, 16.1 mph, 7 m/s, from 170°
Visibility:2.75 statute miles
200(OVC) Overcast
KFCS 191633Z AUTO 17014KT 2 3/4SM FZDZ BR OVC002 M09/M10 A2963 RMK AO2 VIS 1 3/4V2 3/4 SLP069 $
LIFR 16:32:00 19-02-18
Automated station, no observer
Altimeter:29.63 hg
Temp:-9.0°c 16°f
Dew point:-10.0°c 14°f
Wind:12 knots, 13.8 mph, 6 m/s, from 170°
Visibility:2.75 statute miles
200(OVC) Overcast
KFCS 191632Z AUTO 17012KT 2 3/4SM +FZDZ BR OVC002 M09/M10 A2963 RMK AO2 VIS 1 3/4V2 3/4 SLP069 $
LIFR 16:12:00 19-02-18
Automated station, no observer
Altimeter:29.64 hg
Temp:-9.0°c 16°f
Dew point:-10.0°c 14°f
Wind:12 knots, 13.8 mph, 6 m/s, from 180°
Visibility:1.75 statute miles
200(OVC) Overcast
KFCS 191612Z AUTO 18012KT 1 3/4SM +FZDZ BR OVC002 M09/M10 A2964 RMK AO2 VIS 1 3/4V2 1/2 SLP072 $
LIFR 16:07:00 19-02-18
Automated station, no observer
Altimeter:29.64 hg
Temp:-9.0°c 16°f
Dew point:-10.0°c 14°f
Wind:12 knots, 13.8 mph, 6 m/s, from 180°
Visibility:2.0 statute miles
200(OVC) Overcast
KFCS 191607Z AUTO 18012KT 2SM +FZDZ BR OVC002 M09/M10 A2964 RMK AO2 VIS 2V5 SLP072 $
TAF
TAF AMD KFCS 191734Z 1917/2019 17012G20KT 6000 BR OVC003 620039 QNH2945INS TEMPO 1918/1924 18025G35KT -FZDZ 660001 530009 BECMG 2000/2001 18015G25KT 9999 NSW OVC020 620209 520009 QNH2945INS TEMPO 2001/2003 8000 -SN BECMG 2004/2005 35015G25KT 9999 SKC 520009 QNH2955INS TEMPO 2006/2009 35025G35KT 530009 BECMG 2014/2015 17012G20KT 9999 SKC 510009 QNH2962INS TX04/1923Z TNM10/2012Z
Forecast at KFCS
17:00 19-02-18 to 00:00 20-02-18
BR
Wind:12 Knots from 170°
Visibility:3.73 statute miles
300OVC Overcast
TEMPO 18:00 19-02-18 to 00:00 20-02-18
-FZDZ
Wind:25 Knots from 180°
BECMG 00:00 20-02-18 to 04:00 20-02-18
NSW
Wind:15 Knots from 180°
Visibility:6.21 statute miles
2000OVC Overcast
TEMPO 01:00 20-02-18 to 03:00 20-02-18
-SN
Visibility:4.97 statute miles
BECMG 04:00 20-02-18 to 14:00 20-02-18
NSW
Wind:15 Knots from 350°
Visibility:6.21 statute miles
SKC Clear
TEMPO 06:00 20-02-18 to 09:00 20-02-18
Wind:25 Knots from 350°
BECMG 14:00 20-02-18 to 19:00 20-02-18
NSW
Wind:12 Knots from 170°
Visibility:6.21 statute miles
SKC Clear